Time;durP1;ratioP1;P1;durP2;ratioP2;P2;SDS_P1;SDS_P2;PMS_P1;PMS_P2;Temp;Humidity;BMP_temperature;BMP_pressure;BME280_temperature;BME280_humidity;BME280_pressure;Samples;Min_cycle;Max_cycle;Signal;HPM_P1;HPM_P2
2022/11/18 00:00:56;;;;;;;6.25;1.75;;;10.90;99.90;;;;;;5093782;28;20504;-73
2022/11/18 00:03:22;;;;;;;5.95;1.88;;;10.90;99.90;;;;;;5098503;28;20023;-73
2022/11/18 00:05:55;;;;;;;4.70;1.77;;;10.90;99.90;;;;;;5095111;28;20028;-73
2022/11/18 00:08:22;;;;;;;5.43;1.88;;;10.90;99.90;;;;;;5095546;28;20016;-73
2022/11/18 00:10:48;;;;;;;7.05;1.80;;;10.90;99.90;;;;;;5093456;28;20027;-72
2022/11/18 00:16:01;;;;;;;5.07;1.70;;;10.90;99.90;;;;;;5097069;28;20113;-73
2022/11/18 00:18:27;;;;;;;6.03;1.73;;;10.90;99.90;;;;;;5094673;28;20040;-73
2022/11/18 00:20:52;;;;;;;8.15;2.25;;;10.90;99.90;;;;;;5080952;28;20031;-73
2022/11/18 00:23:18;;;;;;;4.60;2.00;;;11.00;99.90;;;;;;5098627;28;20056;-73
2022/11/18 00:25:43;;;;;;;4.10;1.80;;;11.00;99.90;;;;;;5097238;28;20124;-73
2022/11/18 00:28:09;;;;;;;6.28;1.88;;;11.00;99.90;;;;;;5105453;28;20027;-72
2022/11/18 00:30:34;;;;;;;4.53;1.83;;;11.10;99.90;;;;;;5106327;28;20032;-73
2022/11/18 00:33:00;;;;;;;5.95;1.95;;;11.10;99.90;;;;;;5109910;28;20047;-72
2022/11/18 00:35:25;;;;;;;4.65;1.60;;;11.10;99.90;;;;;;5105277;28;20263;-73
2022/11/18 00:37:51;;;;;;;5.60;1.83;;;11.10;99.90;;;;;;5108055;28;20443;-72
2022/11/18 00:40:17;;;;;;;4.90;1.90;;;11.20;99.90;;;;;;5104436;28;20039;-72
2022/11/18 00:42:51;;;;;;;5.93;1.63;;;11.20;99.90;;;;;;5108675;28;20024;-73
2022/11/18 00:45:20;;;;;;;7.50;1.92;;;11.20;99.90;;;;;;5109683;28;20020;-73
2022/11/18 00:47:46;;;;;;;4.63;1.30;;;11.20;99.90;;;;;;5111252;28;20046;-74
2022/11/18 00:50:15;;;;;;;6.25;1.70;;;11.20;99.90;;;;;;5093658;28;20032;-72
2022/11/18 00:52:40;;;;;;;9.93;2.10;;;11.20;99.90;;;;;;5102575;28;20024;-72
2022/11/18 00:55:06;;;;;;;3.55;1.42;;;11.20;99.90;;;;;;5106267;28;20101;-72
2022/11/18 00:57:32;;;;;;;7.22;1.75;;;11.20;99.90;;;;;;5107457;28;20028;-72
2022/11/18 00:59:57;;;;;;;5.15;1.83;;;11.20;99.90;;;;;;5104595;28;20020;-72
2022/11/18 01:02:23;;;;;;;4.05;1.70;;;11.20;99.90;;;;;;5112116;28;20027;-73
2022/11/18 01:04:48;;;;;;;4.00;1.55;;;11.20;99.90;;;;;;5103444;28;20079;-72
2022/11/18 01:07:14;;;;;;;5.65;1.30;;;11.20;99.90;;;;;;5108807;28;20031;-72
2022/11/18 01:09:40;;;;;;;4.15;1.70;;;11.30;99.90;;;;;;5101237;27;20356;-72
2022/11/18 01:14:49;;;;;;;6.15;1.63;;;11.30;99.90;;;;;;5110797;28;20720;-73
2022/11/18 01:17:15;;;;;;;5.40;1.60;;;11.30;99.90;;;;;;5105564;28;20069;-73
2022/11/18 01:19:40;;;;;;;5.55;1.40;;;11.30;99.90;;;;;;5108008;28;20080;-73
2022/11/18 01:22:06;;;;;;;5.53;1.58;;;11.30;99.90;;;;;;5105237;28;20055;-73
2022/11/18 01:24:32;;;;;;;6.03;1.80;;;11.20;99.90;;;;;;5102990;28;20456;-72
2022/11/18 01:27:00;;;;;;;8.90;1.73;;;11.20;99.90;;;;;;5106378;28;20032;-73
2022/11/18 01:29:25;;;;;;;7.40;1.70;;;11.20;99.90;;;;;;5107086;28;20512;-75
2022/11/18 01:31:51;;;;;;;8.65;1.85;;;11.30;99.90;;;;;;5108220;28;20109;-73
2022/11/18 01:34:16;;;;;;;6.05;2.08;;;11.30;99.90;;;;;;5105978;28;20498;-73
2022/11/18 01:36:43;;;;;;;6.13;1.75;;;11.30;99.90;;;;;;5104858;28;20028;-73
2022/11/18 01:39:08;;;;;;;5.57;1.80;;;11.30;99.90;;;;;;5102892;28;20027;-73
2022/11/18 01:41:34;;;;;;;4.22;1.70;;;11.30;99.90;;;;;;5104812;28;20038;-73
2022/11/18 01:44:24;;;;;;;6.90;2.08;;;11.30;99.90;;;;;;5108978;28;20039;-73
2022/11/18 01:46:50;;;;;;;5.05;1.88;;;11.30;99.90;;;;;;5105538;27;20119;-72
2022/11/18 01:49:16;;;;;;;5.13;1.75;;;11.30;99.90;;;;;;5105282;28;20537;-73
2022/11/18 01:51:48;;;;;;;4.45;1.63;;;11.40;99.90;;;;;;5112319;28;20031;-73
2022/11/18 01:54:22;;;;;;;5.47;1.67;;;11.30;99.90;;;;;;5108383;28;20012;-73
2022/11/18 01:56:52;;;;;;;4.68;1.73;;;11.40;99.90;;;;;;5103819;27;20768;-73
2022/11/18 01:59:22;;;;;;;6.13;1.98;;;11.40;99.90;;;;;;5105442;28;20027;-72
2022/11/18 02:01:48;;;;;;;5.53;1.90;;;11.40;99.90;;;;;;5108894;28;20026;-74
2022/11/18 02:04:14;;;;;;;6.25;1.73;;;11.40;99.90;;;;;;5106968;28;20027;-73
2022/11/18 02:06:42;;;;;;;3.92;1.60;;;11.50;99.90;;;;;;5110404;28;20030;-72
2022/11/18 02:09:08;;;;;;;5.88;1.83;;;11.40;99.90;;;;;;5107627;28;20032;-74
2022/11/18 02:14:21;;;;;;;3.83;1.67;;;11.40;99.90;;;;;;5098939;27;20165;-73
2022/11/18 02:17:05;;;;;;;7.22;1.65;;;11.40;99.90;;;;;;5106958;28;20035;-72
2022/11/18 02:19:46;;;;;;;7.28;2.20;;;11.20;99.90;;;;;;5105088;28;20035;-73
2022/11/18 02:22:49;;;;;;;6.65;1.70;;;11.20;99.90;;;;;;5101091;28;20062;-73
2022/11/18 02:25:15;;;;;;;;;;;11.30;99.90;;;;;;5104077;28;20038;-73
2022/11/18 02:28:09;;;;;;;4.32;1.90;;;11.30;99.90;;;;;;5097377;28;19904;-72
2022/11/18 02:30:58;;;;;;;6.03;2.10;;;11.40;99.90;;;;;;5093808;28;20099;-72
2022/11/18 02:34:12;;;;;;;4.82;1.77;;;11.40;99.90;;;;;;5100081;28;20016;-72
2022/11/18 02:36:50;;;;;;;3.17;1.60;;;11.40;99.90;;;;;;5085360;28;20078;-72
2022/11/18 02:39:21;;;;;;;3.92;2.00;;;11.30;99.90;;;;;;5107846;28;20026;-72
2022/11/18 02:41:49;;;;;;;8.85;2.08;;;11.30;99.90;;;;;;5108751;28;20031;-73
2022/11/18 02:44:18;;;;;;;9.23;2.33;;;11.30;99.90;;;;;;5101754;28;20791;-72
2022/11/18 02:46:48;;;;;;;7.05;2.35;;;11.20;99.90;;;;;;5110581;28;20055;-73
2022/11/18 02:49:24;;;;;;;4.35;1.92;;;11.30;99.90;;;;;;5106037;28;20045;-72
2022/11/18 02:51:51;;;;;;;3.42;1.65;;;11.30;99.90;;;;;;5107070;28;20020;-72
2022/11/18 02:54:19;;;;;;;9.30;2.10;;;11.30;99.90;;;;;;5104160;28;20032;-73
2022/11/18 02:56:47;;;;;;;3.78;1.90;;;11.30;99.90;;;;;;5104312;28;20032;-72
2022/11/18 02:59:18;;;;;;;12.38;2.88;;;11.20;99.90;;;;;;5103487;27;20027;-72
2022/11/18 03:01:44;;;;;;;6.45;1.95;;;11.30;99.90;;;;;;5101989;28;20055;-72
2022/11/18 03:04:10;;;;;;;3.05;1.48;;;11.30;99.90;;;;;;5099145;28;20052;-72
2022/11/18 03:06:39;;;;;;;4.57;1.70;;;11.30;99.90;;;;;;5107030;28;20069;-72
2022/11/18 03:09:16;;;;;;;5.93;1.90;;;11.30;99.90;;;;;;5088374;28;20081;-72
2022/11/18 03:11:54;;;;;;;2.28;1.52;;;11.30;99.90;;;;;;5108568;28;20028;-73
2022/11/18 03:14:29;;;;;;;5.78;1.65;;;11.30;99.90;;;;;;5100286;28;20027;-72
2022/11/18 03:17:18;;;;;;;11.10;2.13;;;11.30;99.90;;;;;;5101102;28;20119;-73
2022/11/18 03:20:18;;;;;;;4.43;1.85;;;11.30;99.90;;;;;;5104558;28;20114;-73
2022/11/18 03:23:08;;;;;;;6.18;1.63;;;11.20;99.90;;;;;;5106229;28;20024;-73
2022/11/18 03:25:46;;;;;;;10.55;2.47;;;11.20;99.90;;;;;;5095172;28;20025;-73
2022/11/18 03:28:31;;;;;;;8.48;2.45;;;11.20;99.90;;;;;;5103322;28;20051;-73
2022/11/18 03:31:04;;;;;;;4.93;1.83;;;11.20;99.90;;;;;;5090271;28;20384;-73
2022/11/18 03:33:42;;;;;;;7.25;1.90;;;11.30;99.90;;;;;;5102915;27;20473;-73
2022/11/18 03:36:10;;;;;;;7.57;2.28;;;11.30;99.90;;;;;;5102003;28;20024;-73
2022/11/18 03:38:47;;;;;;;8.75;1.80;;;11.30;99.90;;;;;;5107821;28;20024;-73
2022/11/18 03:41:15;;;;;;;5.70;1.88;;;11.30;99.90;;;;;;5099567;28;20035;-73
2022/11/18 03:43:48;;;;;;;9.93;2.17;;;11.30;99.90;;;;;;5102198;28;20024;-72
2022/11/18 03:46:18;;;;;;;5.97;1.85;;;11.30;99.90;;;;;;5103010;28;20035;-73
2022/11/18 03:48:55;;;;;;;4.20;2.00;;;11.20;99.90;;;;;;5105797;28;20020;-72
2022/11/18 03:51:39;;;;;;;4.60;2.03;;;11.20;99.90;;;;;;5109700;28;20053;-73
2022/11/18 03:54:23;;;;;;;6.50;1.60;;;11.20;99.90;;;;;;5102124;28;20106;-73
2022/11/18 03:57:01;;;;;;;7.13;2.45;;;11.20;99.90;;;;;;5102748;28;20110;-73
2022/11/18 03:59:31;;;;;;;4.30;2.00;;;11.20;99.90;;;;;;5104997;28;20036;-73
2022/11/18 04:02:10;;;;;;;3.42;1.67;;;11.10;99.90;;;;;;5109576;28;20027;-72
2022/11/18 04:04:36;;;;;;;5.88;1.83;;;11.10;99.90;;;;;;5085743;28;20011;-72
2022/11/18 04:07:20;;;;;;;4.22;1.80;;;11.10;99.90;;;;;;5114879;28;20111;-72
2022/11/18 04:09:53;;;;;;;5.45;1.85;;;11.00;99.90;;;;;;5091571;28;20035;-72
2022/11/18 04:12:21;;;;;;;4.60;1.80;;;11.00;99.90;;;;;;5105410;28;20043;-72
2022/11/18 04:14:51;;;;;;;7.18;2.30;;;11.10;99.90;;;;;;5113041;28;20099;-73
2022/11/18 04:17:19;;;;;;;5.65;1.85;;;11.00;99.90;;;;;;5108091;28;20434;-72
2022/11/18 04:19:45;;;;;;;8.48;2.58;;;11.00;99.90;;;;;;5104109;28;20088;-72
2022/11/18 04:22:11;;;;;;;6.38;2.55;;;11.00;99.90;;;;;;5113315;28;20424;-72
2022/11/18 04:24:37;;;;;;;6.40;2.28;;;11.10;99.90;;;;;;5112658;28;20033;-73
2022/11/18 04:27:04;;;;;;;7.15;2.65;;;11.10;99.90;;;;;;5110851;28;20023;-72
2022/11/18 04:29:31;;;;;;;5.05;2.20;;;11.10;99.90;;;;;;5115191;28;20027;-73
2022/11/18 04:31:57;;;;;;;7.25;2.55;;;11.00;99.90;;;;;;5108276;28;20069;-72
2022/11/18 04:34:22;;;;;;;6.93;2.55;;;11.00;99.90;;;;;;5113711;28;20472;-73
2022/11/18 04:36:48;;;;;;;6.32;2.22;;;10.90;99.90;;;;;;5106916;28;20040;-73
2022/11/18 04:39:14;;;;;;;8.95;2.33;;;10.90;99.90;;;;;;5107789;28;20039;-72
2022/11/18 04:41:54;;;;;;;7.15;2.80;;;10.90;99.90;;;;;;5107599;28;20024;-73
2022/11/18 04:44:28;;;;;;;8.25;2.92;;;10.80;99.90;;;;;;5109281;28;20016;-74
2022/11/18 04:46:55;;;;;;;8.27;2.10;;;10.80;99.90;;;;;;5101605;28;20020;-72
2022/11/18 04:49:22;;;;;;;3.63;2.28;;;10.80;99.90;;;;;;5106045;28;20038;-72
2022/11/18 04:51:48;;;;;;;4.63;2.50;;;10.80;99.90;;;;;;5088562;28;20047;-73
2022/11/18 04:54:15;;;;;;;8.35;2.30;;;10.70;99.90;;;;;;5107020;28;20465;-73
2022/11/18 04:56:42;;;;;;;5.80;2.67;;;10.70;99.90;;;;;;5090220;28;20035;-72
2022/11/18 04:59:08;;;;;;;10.02;3.17;;;10.70;99.90;;;;;;5108419;28;20491;-73
2022/11/18 05:01:34;;;;;;;5.00;2.13;;;10.70;99.90;;;;;;5111442;28;20042;-72
2022/11/18 05:04:01;;;;;;;5.63;2.25;;;10.70;99.90;;;;;;5105680;28;20024;-72
2022/11/18 05:06:27;;;;;;;5.55;2.22;;;10.60;99.90;;;;;;5111112;28;20046;-72
2022/11/18 05:08:53;;;;;;;8.57;2.50;;;10.60;99.90;;;;;;5110202;28;20372;-72
2022/11/18 05:14:03;;;;;;;6.90;2.80;;;10.60;99.90;;;;;;5105511;28;20030;-72
2022/11/18 05:16:28;;;;;;;3.97;2.45;;;10.50;99.90;;;;;;5106608;27;20036;-72
2022/11/18 05:18:54;;;;;;;9.35;2.78;;;10.60;99.90;;;;;;5106038;28;20035;-72
2022/11/18 05:21:20;;;;;;;4.13;2.28;;;10.60;99.90;;;;;;5111724;28;20052;-72
2022/11/18 05:23:45;;;;;;;5.88;2.95;;;10.50;99.90;;;;;;5088934;28;20028;-72
2022/11/18 05:26:11;;;;;;;7.18;2.53;;;10.50;99.90;;;;;;5104892;28;20024;-72
2022/11/18 05:28:37;;;;;;;6.60;2.63;;;10.50;99.90;;;;;;5109672;28;20027;-72
2022/11/18 05:31:13;;;;;;;8.23;2.70;;;10.50;99.90;;;;;;5104248;28;20015;-72
2022/11/18 05:33:39;;;;;;;6.35;2.58;;;10.50;99.90;;;;;;5107140;27;20028;-72
2022/11/18 05:36:10;;;;;;;9.77;2.72;;;10.50;99.90;;;;;;5104117;28;20441;-72
2022/11/18 05:38:37;;;;;;;8.95;2.85;;;10.40;99.90;;;;;;5107407;28;20124;-72
2022/11/18 05:41:03;;;;;;;7.70;2.60;;;10.40;99.90;;;;;;5102212;27;20048;-72
2022/11/18 05:43:30;;;;;;;5.60;2.55;;;10.40;99.90;;;;;;5103220;28;20035;-73
2022/11/18 05:45:56;;;;;;;4.75;2.95;;;10.40;99.90;;;;;;5104203;27;20376;-72
2022/11/18 05:48:22;;;;;;;8.13;2.60;;;10.30;99.90;;;;;;5106275;28;20055;-73
2022/11/18 05:50:49;;;;;;;7.57;2.75;;;10.30;99.90;;;;;;5111997;28;20544;-73
2022/11/18 05:53:16;;;;;;;7.38;2.88;;;10.30;99.90;;;;;;5108533;28;20535;-72
2022/11/18 05:56:09;;;;;;;9.52;3.35;;;10.30;99.90;;;;;;5099742;28;20507;-72
2022/11/18 05:58:35;;;;;;;5.25;3.28;;;10.30;99.90;;;;;;5105347;28;20035;-72
2022/11/18 06:01:05;;;;;;;5.60;3.10;;;10.20;99.90;;;;;;5109641;28;20085;-72
2022/11/18 06:03:35;;;;;;;4.85;3.22;;;10.20;99.90;;;;;;5102873;28;20023;-72
2022/11/18 06:06:04;;;;;;;7.45;3.42;;;10.10;99.90;;;;;;5106588;28;20019;-72
2022/11/18 06:08:34;;;;;;;5.97;3.00;;;10.10;99.90;;;;;;5106298;28;20020;-72
2022/11/18 06:11:00;;;;;;;7.90;3.85;;;10.00;99.90;;;;;;5106112;28;20011;-72
2022/11/18 06:13:33;;;;;;;10.93;3.40;;;10.00;99.90;;;;;;5108331;28;20030;-72
2022/11/18 06:15:59;;;;;;;7.70;3.50;;;10.00;99.90;;;;;;5107241;28;20015;-72
2022/11/18 06:18:30;;;;;;;7.32;3.50;;;10.00;99.90;;;;;;5087684;28;20491;-72
2022/11/18 06:20:59;;;;;;;11.07;3.08;;;10.00;99.90;;;;;;5105010;28;20024;-72
2022/11/18 06:23:31;;;;;;;8.63;3.35;;;10.00;99.90;;;;;;5103215;28;20394;-72
2022/11/18 06:25:56;;;;;;;8.02;3.17;;;10.00;99.90;;;;;;5107460;28;20487;-72
2022/11/18 06:28:23;;;;;;;5.57;3.42;;;10.00;99.90;;;;;;5106159;28;20028;-73
2022/11/18 06:30:49;;;;;;;8.80;3.25;;;10.00;99.90;;;;;;5108152;28;20487;-72
2022/11/18 06:33:14;;;;;;;5.03;2.97;;;9.90;99.90;;;;;;5104389;28;20114;-73
2022/11/18 06:35:42;;;;;;;8.55;3.92;;;10.00;99.90;;;;;;5111102;28;20030;-72
2022/11/18 06:38:07;;;;;;;10.48;3.60;;;10.00;99.90;;;;;;5103248;28;20039;-73
2022/11/18 06:40:34;;;;;;;7.30;3.90;;;10.00;99.90;;;;;;5106969;28;20057;-72
2022/11/18 06:48:35;;;;;;;5.88;3.17;;;9.80;99.90;;;;;;5104994;28;20043;-72
2022/11/18 06:51:04;;;;;;;6.72;3.03;;;9.80;99.90;;;;;;5103516;28;20024;-72
2022/11/18 06:53:30;;;;;;;5.72;3.65;;;9.80;99.90;;;;;;5087717;28;20428;-72
2022/11/18 06:55:55;;;;;;;11.25;4.38;;;9.80;99.90;;;;;;5107667;27;20154;-72
2022/11/18 06:58:21;;;;;;;10.63;4.22;;;9.70;99.90;;;;;;5103530;28;20035;-73
2022/11/18 07:00:47;;;;;;;10.70;3.92;;;9.80;99.90;;;;;;5110201;28;20033;-72
2022/11/18 07:03:12;;;;;;;8.20;3.40;;;9.80;99.90;;;;;;5101744;27;20039;-72
2022/11/18 07:05:38;;;;;;;9.85;5.43;;;9.80;99.90;;;;;;5104662;28;20028;-72
2022/11/18 07:08:04;;;;;;;10.88;5.32;;;9.70;99.90;;;;;;5104921;28;20031;-72
2022/11/18 07:10:29;;;;;;;6.75;4.93;;;9.70;99.90;;;;;;5102634;28;20106;-73
2022/11/18 07:12:55;;;;;;;11.02;5.28;;;9.80;99.90;;;;;;5102915;28;20031;-72
2022/11/18 07:15:20;;;;;;;9.73;5.20;;;9.80;99.90;;;;;;5090633;28;20487;-72
2022/11/18 07:17:46;;;;;;;11.10;4.20;;;9.80;99.90;;;;;;5101859;28;20067;-73
2022/11/18 07:20:11;;;;;;;10.48;4.60;;;9.70;99.90;;;;;;5107825;28;20028;-73
2022/11/18 07:22:37;;;;;;;11.50;5.07;;;9.70;99.90;;;;;;5088249;28;20020;-72
2022/11/18 07:25:03;;;;;;;8.45;5.07;;;9.70;99.90;;;;;;5106304;28;20024;-72
2022/11/18 07:27:28;;;;;;;9.10;5.20;;;9.60;99.90;;;;;;5105925;28;20453;-72
2022/11/18 07:29:54;;;;;;;12.63;4.93;;;9.60;99.90;;;;;;5093528;28;20026;-72
2022/11/18 07:32:19;;;;;;;10.90;5.38;;;9.60;99.90;;;;;;5101896;28;20103;-73
2022/11/18 07:34:45;;;;;;;10.57;5.50;;;9.60;99.90;;;;;;5104513;28;20035;-72
2022/11/18 07:37:11;;;;;;;7.90;5.72;;;9.60;99.90;;;;;;5105678;28;20039;-72
2022/11/18 07:39:37;;;;;;;16.55;6.13;;;9.60;99.90;;;;;;5106992;28;20494;-72
2022/11/18 07:42:02;;;;;;;10.50;5.32;;;9.60;99.90;;;;;;5109378;28;20108;-72
2022/11/18 07:44:28;;;;;;;10.50;5.28;;;9.60;99.90;;;;;;5106582;28;20077;-73
2022/11/18 07:46:54;;;;;;;7.18;5.22;;;9.50;99.90;;;;;;5105718;28;20539;-73
2022/11/18 07:49:19;;;;;;;12.13;5.75;;;9.60;99.90;;;;;;5109620;28;20031;-72
2022/11/18 07:51:45;;;;;;;8.65;5.20;;;9.50;99.90;;;;;;5106976;28;20032;-74
2022/11/18 07:54:12;;;;;;;10.43;5.20;;;9.50;99.90;;;;;;5103971;28;20380;-73
2022/11/18 07:56:38;;;;;;;12.18;5.63;;;9.50;99.90;;;;;;5102719;28;20501;-72
2022/11/18 07:59:04;;;;;;;11.63;4.78;;;9.60;99.90;;;;;;5105823;28;20110;-72
2022/11/18 08:01:30;;;;;;;13.13;4.40;;;9.60;99.90;;;;;;5102133;28;20391;-73
2022/11/18 08:04:02;;;;;;;8.25;4.35;;;9.50;99.90;;;;;;5104871;28;20110;-74
2022/11/18 08:06:28;;;;;;;8.88;5.32;;;9.50;99.90;;;;;;5103994;28;20039;-72
2022/11/18 08:08:53;;;;;;;9.65;5.57;;;9.60;99.90;;;;;;5111253;28;20463;-72
2022/11/18 08:11:19;;;;;;;12.38;5.28;;;9.60;99.90;;;;;;5100844;28;20051;-78
2022/11/18 08:13:44;;;;;;;15.02;5.32;;;9.70;99.90;;;;;;5099074;28;20020;-72
2022/11/18 08:16:16;;;;;;;9.63;4.60;;;9.70;99.90;;;;;;5087336;28;20027;-76
2022/11/18 08:18:42;;;;;;;9.00;4.55;;;9.70;99.90;;;;;;5105877;28;20035;-82
2022/11/18 08:21:08;;;;;;;12.25;4.57;;;9.70;99.90;;;;;;5108374;28;20082;-83
2022/11/18 08:23:34;;;;;;;8.25;3.40;;;9.70;99.90;;;;;;5106874;28;20084;-84
2022/11/18 08:26:07;;;;;;;11.20;4.13;;;9.80;99.90;;;;;;5090495;28;20016;-79
2022/11/18 08:28:34;;;;;;;9.20;4.03;;;9.80;99.90;;;;;;5104720;28;20499;-82
2022/11/18 08:31:08;;;;;;;9.55;4.30;;;9.80;99.90;;;;;;5100845;28;20031;-79
2022/11/18 08:33:34;;;;;;;9.60;4.45;;;9.80;99.90;;;;;;5101039;28;20034;-83
2022/11/18 08:36:05;;;;;;;8.40;4.10;;;9.80;99.90;;;;;;5103262;28;20016;-73
2022/11/18 08:38:31;;;;;;;7.33;4.03;;;9.90;99.90;;;;;;5070146;28;20035;-73
2022/11/18 08:40:57;;;;;;;10.38;4.45;;;9.80;99.90;;;;;;5097670;28;20277;-74
2022/11/18 08:43:23;;;;;;;8.52;3.92;;;9.90;99.90;;;;;;5094132;28;20119;-74
2022/11/18 08:45:48;;;;;;;13.63;4.43;;;9.90;99.90;;;;;;5094916;28;20020;-77
2022/11/18 08:48:14;;;;;;;8.10;3.60;;;9.90;99.90;;;;;;5101698;28;20103;-77
2022/11/18 08:50:39;;;;;;;9.52;4.00;;;9.90;99.90;;;;;;5099661;28;20028;-80
2022/11/18 08:53:05;;;;;;;9.20;3.50;;;10.00;99.90;;;;;;5099046;27;20035;-72
2022/11/18 08:55:30;;;;;;;8.73;4.72;;;9.90;99.90;;;;;;5012256;28;21486;-75
2022/11/18 08:57:56;;;;;;;8.60;4.25;;;9.90;99.90;;;;;;5050572;28;20043;-80
2022/11/18 09:00:22;;;;;;;13.50;3.92;;;10.00;99.90;;;;;;5067901;28;20031;-74
2022/11/18 09:02:47;;;;;;;10.25;4.03;;;10.00;99.90;;;;;;5085303;28;20102;-73
2022/11/18 09:05:13;;;;;;;7.20;4.53;;;10.10;99.90;;;;;;5071737;28;20456;-77
2022/11/18 09:07:39;;;;;;;8.18;3.58;;;10.10;99.90;;;;;;5087647;28;20024;-75
2022/11/18 09:10:05;;;;;;;10.73;3.97;;;10.20;99.90;;;;;;5088355;28;20024;-77
2022/11/18 09:12:30;;;;;;;12.18;4.00;;;10.20;99.90;;;;;;5085375;28;20525;-78
2022/11/18 09:14:56;;;;;;;10.85;3.58;;;10.30;99.90;;;;;;5092678;28;20048;-80
2022/11/18 09:17:21;;;;;;;9.70;3.42;;;10.30;99.90;;;;;;5097555;28;20488;-79
2022/11/18 09:19:47;;;;;;;9.05;3.10;;;10.40;99.90;;;;;;5097264;28;20032;-73
2022/11/18 09:22:13;;;;;;;11.00;3.35;;;10.40;99.90;;;;;;5097955;28;20034;-72
2022/11/18 09:24:39;;;;;;;10.02;2.80;;;10.40;99.90;;;;;;5096745;28;20027;-81
2022/11/18 09:27:06;;;;;;;7.90;3.30;;;10.50;99.90;;;;;;5096929;28;20050;-73
2022/11/18 09:29:32;;;;;;;8.45;3.20;;;10.50;99.90;;;;;;5098112;28;20031;-82
2022/11/18 09:32:00;;;;;;;8.43;3.20;;;10.60;99.90;;;;;;5098704;28;20042;-72
2022/11/18 09:34:27;;;;;;;9.07;3.10;;;10.70;99.90;;;;;;5099669;28;20443;-73
2022/11/18 09:36:55;;;;;;;8.52;3.55;;;10.80;99.90;;;;;;5098881;28;20027;-72
2022/11/18 09:39:24;;;;;;;10.73;3.40;;;10.90;99.90;;;;;;5097971;28;20028;-73
2022/11/18 09:42:04;;;;;;;10.27;2.78;;;10.90;99.90;;;;;;5103654;28;20058;-72
2022/11/18 09:45:09;;;;;;;7.97;2.60;;;11.00;99.90;;;;;;5102420;28;20191;-73
2022/11/18 09:47:35;;;;;;;9.73;3.17;;;11.00;99.90;;;;;;5100447;28;20027;-71
2022/11/18 09:50:20;;;;;;;5.55;2.60;;;11.10;99.90;;;;;;5100836;28;20076;-73
2022/11/18 09:53:03;;;;;;;8.10;2.80;;;11.10;99.90;;;;;;5103634;28;20030;-75
2022/11/18 09:55:28;;;;;;;;;;;11.20;99.90;;;;;;5100152;28;20115;-75
2022/11/18 09:57:56;;;;;;;13.90;3.47;;;11.40;99.90;;;;;;5101360;28;19998;-73
2022/11/18 10:00:25;;;;;;;9.75;2.47;;;11.50;99.90;;;;;;5096398;28;20504;-73
2022/11/18 10:03:01;;;;;;;9.90;2.67;;;11.50;99.90;;;;;;5100659;28;20016;-72
2022/11/18 10:05:35;;;;;;;11.50;2.42;;;11.50;99.90;;;;;;5096249;27;20494;-72
2022/11/18 10:08:31;;;;;;;12.00;3.13;;;11.60;99.90;;;;;;5100807;28;20023;-73
2022/11/18 10:11:09;;;;;;;7.90;3.25;;;11.60;99.90;;;;;;5100884;28;20028;-73
2022/11/18 10:14:02;;;;;;;11.55;2.83;;;11.60;99.90;;;;;;5099859;28;20028;-73
2022/11/18 10:16:38;;;;;;;9.80;2.92;;;11.70;99.90;;;;;;5096869;28;20027;-72
2022/11/18 10:19:15;;;;;;;9.75;2.95;;;11.50;99.90;;;;;;5095904;28;20036;-72
2022/11/18 10:21:56;;;;;;;8.02;2.42;;;11.50;99.90;;;;;;5090994;27;20600;-73
2022/11/18 10:24:31;;;;;;;5.53;2.83;;;11.60;99.90;;;;;;5086127;28;20147;-72
2022/11/18 10:26:59;;;;;;;6.40;2.58;;;11.60;99.90;;;;;;5087600;28;20039;-72
2022/11/18 10:29:25;;;;;;;12.23;3.65;;;11.60;99.90;;;;;;5086238;28;20071;-72
2022/11/18 10:32:03;;;;;;;11.85;3.97;;;11.70;99.90;;;;;;5088597;28;20027;-73
2022/11/18 10:34:29;;;;;;;7.03;2.65;;;11.70;99.90;;;;;;5089339;28;20117;-74
2022/11/18 10:37:02;;;;;;;12.07;3.15;;;11.70;99.90;;;;;;5085530;28;20051;-74
2022/11/18 10:39:27;;;;;;;8.18;3.15;;;11.70;99.90;;;;;;5086760;28;20042;-72
2022/11/18 10:42:01;;;;;;;11.25;3.40;;;11.80;99.90;;;;;;5081061;28;20028;-73
2022/11/18 10:44:41;;;;;;;11.05;4.22;;;11.70;99.90;;;;;;5086354;28;20059;-72
2022/11/18 10:47:29;;;;;;;11.35;3.30;;;11.80;99.90;;;;;;5084711;28;20495;-72
2022/11/18 10:50:00;;;;;;;5.57;2.90;;;11.80;99.90;;;;;;5079664;28;20049;-72
2022/11/18 10:52:28;;;;;;;10.82;3.30;;;11.80;99.90;;;;;;5090016;28;20024;-72
2022/11/18 10:55:19;;;;;;;12.93;3.53;;;11.80;99.90;;;;;;5088285;28;20020;-72
2022/11/18 10:57:47;;;;;;;9.30;4.15;;;11.80;99.90;;;;;;5098993;28;20164;-75
2022/11/18 11:00:31;;;;;;;13.52;4.07;;;11.80;99.90;;;;;;5098834;28;20026;-73
2022/11/18 11:02:57;;;;;;;12.80;4.15;;;11.80;99.90;;;;;;5095358;28;20046;-72
2022/11/18 11:05:24;;;;;;;8.80;3.17;;;11.90;99.90;;;;;;5098723;28;20028;-75
2022/11/18 11:08:18;;;;;;;13.30;3.33;;;11.90;99.90;;;;;;5098655;28;20020;-74
2022/11/18 11:10:54;;;;;;;10.55;2.97;;;12.00;99.90;;;;;;5080452;28;20031;-73
2022/11/18 11:13:22;;;;;;;10.73;3.58;;;12.00;99.90;;;;;;5094235;28;20030;-74
2022/11/18 11:15:51;;;;;;;10.75;3.33;;;12.00;99.90;;;;;;5098368;28;20163;-72
2022/11/18 11:18:41;;;;;;;11.02;3.42;;;12.10;99.90;;;;;;5099137;28;20070;-72
2022/11/18 11:21:18;;;;;;;9.02;4.10;;;12.10;99.90;;;;;;5099577;28;20126;-72
2022/11/18 11:23:45;;;;;;;9.02;3.53;;;12.10;99.90;;;;;;5097029;28;20365;-72
2022/11/18 11:26:27;;;;;;;8.15;3.08;;;12.20;99.90;;;;;;5098278;28;20030;-73
2022/11/18 11:29:04;;;;;;;9.82;3.55;;;12.20;99.90;;;;;;5100111;28;20035;-72
2022/11/18 11:32:05;;;;;;;9.25;3.75;;;12.30;99.90;;;;;;5099360;28;20024;-72
2022/11/18 11:34:49;;;;;;;10.38;3.15;;;12.40;99.90;;;;;;5066890;28;20074;-72
2022/11/18 11:37:36;;;;;;;7.38;3.47;;;12.40;99.90;;;;;;5103224;28;20050;-72
2022/11/18 11:40:10;;;;;;;7.50;2.80;;;12.50;99.90;;;;;;5098581;28;20016;-72
2022/11/18 11:42:36;;;;;;;9.30;3.65;;;12.50;99.90;;;;;;5096698;28;20460;-73
2022/11/18 11:45:38;;;;;;;9.10;2.97;;;12.40;99.90;;;;;;5100115;28;20019;-73
2022/11/18 11:48:21;;;;;;;9.23;3.15;;;12.60;99.90;;;;;;5100221;28;20459;-72
2022/11/18 11:50:53;;;;;;;8.25;3.20;;;12.60;99.90;;;;;;5097498;28;20081;-72
2022/11/18 11:53:56;;;;;;;11.35;3.05;;;12.70;99.90;;;;;;5098649;28;20479;-73
2022/11/18 11:56:36;;;;;;;12.52;3.38;;;12.60;99.90;;;;;;5099341;28;20034;-74
2022/11/18 11:59:29;;;;;;;10.70;4.10;;;12.60;99.90;;;;;;5096929;28;20100;-74
2022/11/18 12:02:21;;;;;;;13.57;3.55;;;12.60;99.90;;;;;;5098000;28;20035;-73
2022/11/18 12:04:50;;;;;;;8.73;2.95;;;12.70;99.90;;;;;;5099572;28;20179;-72
2022/11/18 12:07:28;;;;;;;6.60;2.55;;;12.70;99.90;;;;;;5097371;28;20028;-72
2022/11/18 12:10:22;;;;;;;9.18;2.95;;;12.80;99.90;;;;;;5081823;28;20032;-72
2022/11/18 12:12:56;;;;;;;8.10;2.55;;;12.90;99.90;;;;;;5092711;28;20046;-72
2022/11/18 12:15:49;;;;;;;5.45;2.42;;;12.90;99.90;;;;;;5094783;28;20031;-73
2022/11/18 12:18:32;;;;;;;11.75;2.35;;;12.90;99.90;;;;;;5097015;28;20580;-72
2022/11/18 12:20:58;;;;;;;11.52;2.90;;;12.90;99.90;;;;;;5103021;28;20464;-73
2022/11/18 12:23:27;;;;;;;6.72;2.35;;;12.90;99.90;;;;;;5101030;28;20026;-72
2022/11/18 12:26:05;;;;;;;12.32;5.32;;;12.80;99.90;;;;;;5099220;28;20142;-74
2022/11/18 12:28:42;;;;;;;10.00;2.63;;;12.80;99.90;;;;;;5101675;28;20024;-75
2022/11/18 12:31:17;;;;;;;8.77;2.33;;;12.80;99.90;;;;;;5097937;28;20031;-77
2022/11/18 12:33:58;;;;;;;5.35;2.67;;;12.80;99.90;;;;;;5099045;28;20116;-73
2022/11/18 12:36:39;;;;;;;9.85;2.45;;;12.90;99.90;;;;;;5097456;28;20016;-75
2022/11/18 12:39:26;;;;;;;7.72;2.40;;;12.80;99.90;;;;;;5099526;28;20032;-77
2022/11/18 12:44:46;;;;;;;9.30;2.10;;;12.90;99.90;;;;;;5102831;28;20038;-75
2022/11/18 12:47:32;;;;;;;8.75;2.58;;;12.90;99.90;;;;;;5103172;28;20042;-74
2022/11/18 12:50:15;;;;;;;8.13;2.55;;;13.00;99.90;;;;;;5096889;28;20028;-75
2022/11/18 12:52:40;;;;;;;5.93;2.55;;;13.00;99.90;;;;;;5099199;27;20425;-78
2022/11/18 12:55:20;;;;;;;10.55;2.63;;;13.00;99.90;;;;;;5099157;28;20049;-73
2022/11/18 12:57:46;;;;;;;4.60;2.35;;;13.00;99.90;;;;;;5096450;28;20044;-74
2022/11/18 13:00:24;;;;;;;9.95;2.70;;;13.00;99.90;;;;;;5103101;28;20354;-74
2022/11/18 13:02:55;;;;;;;8.43;3.13;;;13.00;99.90;;;;;;5081336;28;20394;-75
2022/11/18 13:05:29;;;;;;;4.30;2.92;;;13.00;99.90;;;;;;5100033;28;20029;-75
2022/11/18 13:08:13;;;;;;;10.68;2.75;;;12.90;99.90;;;;;;5100440;28;20085;-72
2022/11/18 13:10:51;;;;;;;6.80;2.45;;;13.00;99.90;;;;;;5082364;28;20486;-71
2022/11/18 13:13:33;;;;;;;6.55;2.70;;;12.90;99.90;;;;;;5095577;28;20016;-72
2022/11/18 13:18:53;;;;;;;7.45;2.67;;;12.80;99.90;;;;;;5099251;28;20162;-72
2022/11/18 13:24:19;;;;;;;10.32;2.70;;;12.90;99.90;;;;;;5104217;28;20081;-75
2022/11/18 13:26:46;;;;;;;8.93;2.33;;;13.00;99.90;;;;;;5081036;28;20081;-74
2022/11/18 13:29:30;;;;;;;5.35;2.53;;;13.00;99.90;;;;;;5099155;28;20023;-74
2022/11/18 13:32:22;;;;;;;6.55;2.42;;;13.10;99.90;;;;;;5097088;28;20027;-76